Time;durP1;ratioP1;P1;durP2;ratioP2;P2;SDS_P1;SDS_P2;PMS_P1;PMS_P2;Temp;Humidity;BMP_temperature;BMP_pressure;BME280_temperature;BME280_humidity;BME280_pressure;Samples;Min_cycle;Max_cycle;Signal;HPM_P1;HPM_P2
2024/01/11 00:01:12;;;;;;;30.80;14.85;;;;;;;-2.00;54.21;98145.94;5001826;28;20057;-84
2024/01/11 00:03:38;;;;;;;31.35;14.60;;;;;;;-1.93;54.24;98150.34;5005355;28;20144;-84
2024/01/11 00:06:04;;;;;;;30.73;15.82;;;;;;;-2.02;55.10;98156.28;5022433;28;20481;-84
2024/01/11 00:08:30;;;;;;;30.63;15.50;;;;;;;-2.02;54.64;98146.09;5001459;28;20048;-84
2024/01/11 00:10:55;;;;;;;36.13;15.50;;;;;;;-2.04;55.22;98147.94;5021431;28;20038;-84
2024/01/11 00:13:21;;;;;;;36.15;15.55;;;;;;;-2.12;55.45;98160.63;5022763;28;20032;-83
2024/01/11 00:15:46;;;;;;;34.60;14.52;;;;;;;-2.25;55.78;98143.06;4997040;28;20025;-84
2024/01/11 00:18:11;;;;;;;34.03;15.20;;;;;;;-2.17;55.16;98150.81;4992616;28;20044;-84
2024/01/11 00:20:37;;;;;;;29.08;13.98;;;;;;;-2.22;55.01;98144.53;4998501;28;20030;-84
2024/01/11 00:23:02;;;;;;;33.08;14.80;;;;;;;-2.27;55.52;98155.16;4991934;28;20123;-80
2024/01/11 00:25:28;;;;;;;28.63;14.95;;;;;;;-2.21;54.93;98157.16;5006592;28;20115;-80
2024/01/11 00:27:53;;;;;;;31.27;15.10;;;;;;;-2.16;56.22;98160.09;5001272;28;20037;-79
2024/01/11 00:30:18;;;;;;;30.80;14.80;;;;;;;-2.16;56.12;98165.19;5011381;28;20080;-79
2024/01/11 00:32:44;;;;;;;31.98;14.07;;;;;;;-2.12;55.51;98163.97;5006533;28;20038;-80
2024/01/11 00:35:09;;;;;;;31.55;15.48;;;;;;;-2.10;55.22;98161.28;5021918;28;20373;-80
2024/01/11 00:37:34;;;;;;;29.20;14.35;;;;;;;-2.13;55.64;98159.78;5008875;28;20037;-80
2024/01/11 00:40:00;;;;;;;27.77;13.98;;;;;;;-2.13;55.18;98164.91;5019929;28;20111;-80
2024/01/11 00:42:25;;;;;;;29.85;12.55;;;;;;;-2.12;55.58;98160.63;5016376;28;20355;-79
2024/01/11 00:44:51;;;;;;;30.13;13.52;;;;;;;-2.22;55.09;98147.88;5014928;28;20115;-79
2024/01/11 00:47:16;;;;;;;32.35;15.02;;;;;;;-2.28;54.89;98162.00;5012957;28;20045;-79
2024/01/11 00:49:42;;;;;;;32.92;14.63;;;;;;;-2.28;55.74;98164.56;4998986;28;20033;-80
2024/01/11 00:52:09;;;;;;;32.20;14.77;;;;;;;-2.39;55.31;98153.69;5011825;28;20034;-79
2024/01/11 00:54:35;;;;;;;30.02;12.82;;;;;;;-2.33;56.07;98161.59;5016859;28;20061;-80
2024/01/11 00:57:00;;;;;;;33.47;15.23;;;;;;;-2.39;55.51;98158.81;5015486;28;20128;-80
2024/01/11 00:59:26;;;;;;;35.22;15.93;;;;;;;-2.34;56.14;98161.75;4999306;28;20199;-80
2024/01/11 01:01:51;;;;;;;31.95;13.82;;;;;;;-2.45;56.00;98149.94;4985816;28;20030;-80
2024/01/11 01:04:17;;;;;;;34.47;14.45;;;;;;;-2.41;56.90;98161.50;4987814;28;20110;-80
2024/01/11 01:06:43;;;;;;;33.38;14.18;;;;;;;-2.42;55.94;98146.31;4990163;28;20112;-80
2024/01/11 01:09:08;;;;;;;28.25;14.88;;;;;;;-2.34;55.81;98162.53;5013476;28;20075;-79
2024/01/11 01:11:33;;;;;;;32.30;14.60;;;;;;;-2.40;56.61;98162.28;5028257;28;20488;-84
2024/01/11 01:13:59;;;;;;;29.85;15.00;;;;;;;-2.52;55.93;98159.91;4998306;28;20033;-84
2024/01/11 01:16:24;;;;;;;33.38;13.98;;;;;;;-2.59;56.36;98158.81;5012699;28;20139;-84
2024/01/11 01:18:50;;;;;;;34.90;16.42;;;;;;;-2.57;56.06;98161.22;5003927;28;20044;-85
2024/01/11 01:21:15;;;;;;;28.55;14.35;;;;;;;-2.56;57.14;98162.84;5011050;28;20034;-84
2024/01/11 01:23:40;;;;;;;34.05;14.75;;;;;;;-2.61;56.89;98163.25;5002580;28;20107;-84
2024/01/11 01:26:06;;;;;;;32.25;15.52;;;;;;;-2.57;56.44;98159.50;5004876;28;20038;-84
2024/01/11 01:28:32;;;;;;;33.65;15.10;;;;;;;-2.64;57.05;98166.88;4985027;28;20109;-84
2024/01/11 01:30:57;;;;;;;37.28;16.08;;;;;;;-2.63;57.60;98167.69;4996097;28;20030;-79
2024/01/11 01:33:23;;;;;;;42.92;18.77;;;;;;;-2.65;56.93;98175.47;5016501;28;20129;-79
2024/01/11 01:35:48;;;;;;;37.70;17.83;;;;;;;-2.58;56.44;98170.63;4984148;28;20474;-80
2024/01/11 01:38:13;;;;;;;30.95;15.77;;;;;;;-2.50;57.55;98180.13;4983095;28;20130;-79
2024/01/11 01:40:39;;;;;;;36.40;16.50;;;;;;;-2.47;56.42;98178.16;5015248;28;20037;-79
2024/01/11 01:43:07;;;;;;;35.78;16.33;;;;;;;-2.43;57.16;98185.50;5016536;28;20025;-80
2024/01/11 01:45:33;;;;;;;34.10;14.90;;;;;;;-2.49;57.69;98184.31;4998732;28;20172;-80
2024/01/11 01:47:58;;;;;;;28.75;14.02;;;;;;;-2.40;56.86;98187.78;5011823;28;20113;-79
2024/01/11 01:50:23;;;;;;;29.02;14.48;;;;;;;-2.40;57.01;98186.03;5008439;28;20041;-79
2024/01/11 01:52:51;;;;;;;32.38;15.38;;;;;;;-2.38;56.75;98175.69;5006789;28;20040;-80
2024/01/11 01:55:17;;;;;;;32.10;14.10;;;;;;;-2.33;56.44;98189.66;4984514;28;20478;-80
2024/01/11 01:57:43;;;;;;;31.33;15.73;;;;;;;-2.36;57.21;98195.03;5008004;28;20033;-79
2024/01/11 02:00:11;;;;;;;30.58;14.90;;;;;;;-2.42;57.26;98184.56;4997023;28;20037;-80
2024/01/11 02:02:38;;;;;;;31.10;13.85;;;;;;;-2.41;56.58;98197.19;4993770;28;20155;-79
2024/01/11 02:05:04;;;;;;;32.47;15.43;;;;;;;-2.46;56.91;98189.13;5025051;28;20045;-80
2024/01/11 02:07:29;;;;;;;36.42;14.85;;;;;;;-2.60;57.85;98200.56;5001341;28;20029;-80
2024/01/11 02:09:55;;;;;;;37.03;16.85;;;;;;;-2.47;57.74;98206.19;5018044;28;20048;-80
2024/01/11 02:12:21;;;;;;;39.17;16.88;;;;;;;-2.44;56.78;98194.91;5007480;28;20030;-80
2024/01/11 02:14:46;;;;;;;32.85;14.50;;;;;;;-2.46;57.43;98200.13;4990789;28;20265;-80
2024/01/11 02:17:11;;;;;;;37.78;15.32;;;;;;;-2.51;56.73;98197.19;5023331;28;20046;-79
2024/01/11 02:19:37;;;;;;;34.67;15.30;;;;;;;-2.49;57.43;98197.06;4999198;28;20095;-80
2024/01/11 02:22:26;;;;;;;36.58;15.52;;;;;;;-2.43;57.29;98200.81;5009477;28;20042;-85
2024/01/11 02:24:53;;;;;;;35.92;15.95;;;;;;;-2.58;57.60;98201.22;5008238;28;20037;-84
2024/01/11 02:27:18;;;;;;;36.05;15.50;;;;;;;-2.57;57.35;98191.81;4986370;28;20041;-85
2024/01/11 02:29:43;;;;;;;35.28;14.98;;;;;;;-2.53;57.33;98201.63;5002697;28;20087;-85
2024/01/11 02:32:09;;;;;;;34.95;15.18;;;;;;;-2.45;57.90;98194.09;5006325;28;20053;-84
2024/01/11 02:34:35;;;;;;;34.45;15.93;;;;;;;-2.37;57.56;98197.72;4995674;28;20041;-84
2024/01/11 02:37:01;;;;;;;35.47;16.40;;;;;;;-2.43;57.80;98198.25;5032679;28;20417;-85
2024/01/11 02:39:26;;;;;;;36.47;16.55;;;;;;;-2.45;57.29;98193.28;5007190;28;20073;-84
2024/01/11 02:41:53;;;;;;;39.30;15.20;;;;;;;-2.42;57.22;98180.28;5002357;28;20493;-86
2024/01/11 02:44:19;;;;;;;34.60;15.40;;;;;;;-2.43;57.68;98188.88;5011812;28;20034;-85
2024/01/11 02:46:44;;;;;;;35.55;15.80;;;;;;;-2.42;57.12;98180.28;5009986;28;20037;-86
2024/01/11 02:49:10;;;;;;;34.05;15.63;;;;;;;-2.41;57.13;98181.88;5006449;28;20238;-85
2024/01/11 02:51:36;;;;;;;37.83;15.80;;;;;;;-2.42;57.80;98179.47;5001930;28;20025;-85
2024/01/11 02:54:02;;;;;;;31.77;15.02;;;;;;;-2.50;57.30;98163.13;5006765;28;20392;-84
2024/01/11 02:56:27;;;;;;;37.80;14.80;;;;;;;-2.46;57.84;98172.09;5002047;28;20033;-85
2024/01/11 02:58:52;;;;;;;36.83;15.90;;;;;;;-2.34;57.39;98156.66;5000960;28;20124;-84
2024/01/11 03:01:18;;;;;;;34.67;15.95;;;;;;;-2.22;57.08;98165.75;4986267;28;20041;-84
2024/01/11 03:03:43;;;;;;;35.63;16.67;;;;;;;-2.17;56.89;98166.13;4999963;28;20064;-84
2024/01/11 03:06:08;;;;;;;33.58;16.40;;;;;;;-2.21;56.99;98163.97;5038007;28;20091;-85
2024/01/11 03:08:34;;;;;;;32.92;14.80;;;;;;;-2.19;56.37;98160.38;5021038;28;20030;-84
2024/01/11 03:10:59;;;;;;;36.47;16.33;;;;;;;-2.23;56.66;98163.31;5025480;28;20029;-84
2024/01/11 03:13:24;;;;;;;31.00;15.73;;;;;;;-2.30;57.22;98163.88;5021967;28;20065;-85
2024/01/11 03:15:52;;;;;;;36.30;15.93;;;;;;;-2.20;56.76;98161.28;4991842;28;20056;-85
2024/01/11 03:18:17;;;;;;;36.85;17.33;;;;;;;-2.22;56.79;98162.38;5003340;28;20119;-86
2024/01/11 03:20:43;;;;;;;35.58;16.55;;;;;;;-2.36;56.48;98153.44;4983142;28;20045;-85
2024/01/11 03:23:08;;;;;;;38.95;16.58;;;;;;;-2.32;57.06;98157.31;5006168;28;20068;-84
2024/01/11 03:25:34;;;;;;;35.75;15.75;;;;;;;-2.43;57.22;98157.44;4983429;28;20116;-84
2024/01/11 03:27:59;;;;;;;34.00;14.98;;;;;;;-2.45;57.96;98150.75;5012630;28;20527;-85
2024/01/11 03:30:27;;;;;;;32.92;15.25;;;;;;;-2.39;57.48;98161.34;5008748;28;20618;-85
2024/01/11 03:32:53;;;;;;;36.03;16.77;;;;;;;-2.54;57.88;98166.84;5012263;28;20044;-86
2024/01/11 03:35:18;;;;;;;34.80;15.70;;;;;;;-2.53;58.23;98168.47;4988282;28;20022;-85
2024/01/11 03:37:47;;;;;;;35.72;16.15;;;;;;;-2.55;57.58;98165.28;5002802;28;20079;-85
2024/01/11 03:40:14;;;;;;;37.60;16.42;;;;;;;-2.62;57.71;98161.66;5015175;28;20120;-85
2024/01/11 03:42:39;;;;;;;33.58;15.05;;;;;;;-2.53;58.67;98172.78;5000806;28;20068;-86
2024/01/11 03:45:05;;;;;;;35.53;16.10;;;;;;;-2.47;58.52;98167.94;4998457;28;20414;-85
2024/01/11 03:47:30;;;;;;;36.75;15.70;;;;;;;-2.49;58.11;98159.59;5013283;28;20113;-86
2024/01/11 03:49:56;;;;;;;37.95;16.63;;;;;;;-2.47;57.62;98159.47;4997448;28;20497;-85
2024/01/11 03:52:21;;;;;;;33.95;15.20;;;;;;;-2.46;57.64;98158.53;5002400;28;20039;-84
2024/01/11 03:54:47;;;;;;;35.92;17.15;;;;;;;-2.41;57.34;98170.88;5012427;28;20021;-86
2024/01/11 03:57:12;;;;;;;38.15;16.98;;;;;;;-2.40;57.54;98157.97;5003037;28;20029;-84
2024/01/11 03:59:38;;;;;;;35.40;16.02;;;;;;;-2.29;57.22;98159.59;5020939;28;20132;-85
2024/01/11 04:02:03;;;;;;;35.55;16.55;;;;;;;-2.29;57.61;98155.28;5002450;28;20064;-79
2024/01/11 04:04:29;;;;;;;36.17;15.45;;;;;;;-2.24;58.37;98149.78;4999872;28;20441;-79
2024/01/11 04:06:54;;;;;;;36.35;15.75;;;;;;;-2.26;57.66;98155.00;5031199;28;20414;-79
2024/01/11 04:09:20;;;;;;;38.17;17.02;;;;;;;-2.26;57.94;98147.34;5010491;28;20437;-80
2024/01/11 04:11:45;;;;;;;31.73;15.20;;;;;;;-2.33;57.67;98148.84;4993762;28;20478;-80
2024/01/11 04:14:11;;;;;;;39.35;17.40;;;;;;;-2.23;57.98;98143.72;5007118;28;20029;-80
2024/01/11 04:16:41;;;;;;;37.10;16.10;;;;;;;-2.04;58.14;98147.16;5013664;28;20521;-80
2024/01/11 04:19:06;;;;;;;40.45;17.08;;;;;;;-2.18;56.97;98144.09;4979784;28;20120;-80
2024/01/11 04:21:32;;;;;;;34.75;15.60;;;;;;;-2.13;57.47;98149.59;5016035;28;20038;-80
2024/01/11 04:23:57;;;;;;;34.75;16.70;;;;;;;-2.12;57.77;98150.41;4999370;28;20060;-79
2024/01/11 04:26:22;;;;;;;35.67;15.93;;;;;;;-2.11;57.42;98155.38;5023277;28;20499;-80
2024/01/11 04:28:49;;;;;;;32.38;15.13;;;;;;;-2.24;57.46;98146.41;5014261;28;20113;-79
2024/01/11 04:31:16;;;;;;;33.42;16.38;;;;;;;-2.30;57.61;98153.66;5007474;28;20132;-80
2024/01/11 04:33:42;;;;;;;34.72;16.42;;;;;;;-2.33;58.46;98153.13;5016438;28;20025;-80
2024/01/11 04:36:08;;;;;;;38.25;15.38;;;;;;;-2.29;58.33;98151.94;4988016;28;20401;-79
2024/01/11 04:38:34;;;;;;;37.42;15.25;;;;;;;-2.32;58.29;98155.56;5028496;28;20053;-80
2024/01/11 04:41:00;;;;;;;29.63;16.38;;;;;;;-2.34;57.24;98149.00;5027070;28;20446;-79
2024/01/11 04:43:25;;;;;;;39.80;17.15;;;;;;;-2.41;57.54;98146.19;5011606;28;20060;-79
2024/01/11 04:45:51;;;;;;;56.50;22.40;;;;;;;-2.35;56.93;98153.28;5022837;28;20374;-80
2024/01/11 04:48:16;;;;;;;101.60;40.42;;;;;;;-2.41;58.72;98151.28;5023805;28;20441;-79
2024/01/11 04:50:43;;;;;;;122.03;45.45;;;;;;;-2.33;57.86;98148.03;5014000;28;20490;-80
2024/01/11 04:53:08;;;;;;;77.93;30.35;;;;;;;-2.35;57.45;98160.13;5019759;28;20024;-79
2024/01/11 04:55:34;;;;;;;62.10;27.20;;;;;;;-2.36;58.36;98153.44;5010312;28;20029;-81
2024/01/11 04:57:59;;;;;;;48.20;22.33;;;;;;;-2.35;57.97;98160.91;4987652;28;20037;-79
2024/01/11 05:00:25;;;;;;;37.00;16.85;;;;;;;-2.36;58.49;98172.09;4991212;28;20045;-80
2024/01/11 05:02:50;;;;;;;38.10;18.13;;;;;;;-2.43;58.21;98163.38;5021490;28;20478;-80
2024/01/11 05:05:15;;;;;;;34.13;14.90;;;;;;;-2.57;58.35;98151.84;5004065;28;20032;-79
2024/01/11 05:07:41;;;;;;;38.65;16.70;;;;;;;-2.63;59.01;98165.13;5041969;28;20077;-79
2024/01/11 05:10:07;;;;;;;37.20;17.45;;;;;;;-2.61;59.23;98162.47;5010353;28;20057;-79
2024/01/11 05:12:33;;;;;;;34.58;15.88;;;;;;;-2.51;58.55;98171.69;5019512;28;20119;-80
2024/01/11 05:14:58;;;;;;;32.22;17.23;;;;;;;-2.48;58.86;98166.31;5014094;28;20158;-80
2024/01/11 05:17:24;;;;;;;41.17;17.90;;;;;;;-2.65;59.09;98167.03;4990072;28;20658;-80
2024/01/11 05:19:49;;;;;;;34.10;16.60;;;;;;;-2.71;59.87;98180.28;5011502;28;20038;-80
2024/01/11 05:22:15;;;;;;;36.40;17.75;;;;;;;-2.69;60.20;98173.31;4986106;28;20067;-79
2024/01/11 05:24:40;;;;;;;38.13;17.48;;;;;;;-2.70;59.50;98161.53;5000966;28;20113;-79
2024/01/11 05:27:05;;;;;;;42.55;17.88;;;;;;;-2.66;59.28;98183.25;4991379;28;20069;-79
2024/01/11 05:29:32;;;;;;;37.28;16.90;;;;;;;-2.59;58.88;98165.66;4982543;28;20037;-79
2024/01/11 05:31:57;;;;;;;51.67;18.90;;;;;;;-2.46;59.68;98168.75;4996401;28;20076;-80
2024/01/11 05:34:23;;;;;;;37.42;18.17;;;;;;;-2.42;59.53;98169.28;5030741;28;20493;-79
2024/01/11 05:36:49;;;;;;;56.75;20.15;;;;;;;-2.28;58.76;98167.09;4990525;28;20063;-80
2024/01/11 05:39:14;;;;;;;38.35;18.20;;;;;;;-2.30;58.59;98173.28;5023896;28;20386;-79
2024/01/11 05:41:43;;;;;;;42.55;17.88;;;;;;;-2.47;59.18;98173.03;5014557;28;20034;-78
2024/01/11 05:44:09;;;;;;;38.88;18.08;;;;;;;-2.26;58.45;98179.72;5008660;28;20060;-79
2024/01/11 05:46:34;;;;;;;45.28;18.48;;;;;;;-2.37;58.21;98177.31;5024456;28;20045;-79
2024/01/11 05:48:59;;;;;;;38.85;17.77;;;;;;;-2.38;58.33;98176.53;5017549;28;20428;-79
2024/01/11 05:51:24;;;;;;;38.97;17.52;;;;;;;-2.27;57.43;98181.44;4988562;28;20033;-80
2024/01/11 05:53:50;;;;;;;45.88;18.38;;;;;;;-2.46;58.14;98179.75;5024265;28;20037;-85
2024/01/11 05:56:15;;;;;;;43.28;19.50;;;;;;;-2.30;58.83;98168.16;5004916;28;20054;-85
2024/01/11 05:58:41;;;;;;;51.90;21.73;;;;;;;-2.45;59.22;98186.47;5004460;28;20041;-85
2024/01/11 06:01:06;;;;;;;44.75;20.77;;;;;;;-2.38;58.12;98185.91;5005025;28;20057;-85
2024/01/11 06:03:34;;;;;;;47.08;20.00;;;;;;;-2.41;58.28;98179.34;4988238;28;20036;-84
2024/01/11 06:06:00;;;;;;;39.60;17.67;;;;;;;-2.57;58.39;98171.44;4989947;28;20029;-86
2024/01/11 06:08:26;;;;;;;41.10;18.38;;;;;;;-2.43;59.15;98190.59;5015848;28;20482;-83
2024/01/11 06:10:51;;;;;;;35.70;17.55;;;;;;;-2.37;57.99;98188.31;4999773;28;20052;-84
2024/01/11 06:13:18;;;;;;;35.53;16.05;;;;;;;-2.47;58.49;98188.34;5014266;28;20509;-85
2024/01/11 06:15:43;;;;;;;44.95;19.52;;;;;;;-2.46;58.81;98189.94;5015336;28;20424;-85
2024/01/11 06:18:09;;;;;;;37.95;16.50;;;;;;;-2.38;58.45;98188.44;5004987;28;20466;-85
2024/01/11 06:20:34;;;;;;;33.13;16.67;;;;;;;-2.40;58.13;98187.78;5024212;28;20116;-84
2024/01/11 06:23:00;;;;;;;34.50;16.27;;;;;;;-2.46;58.11;98184.03;5030214;28;20053;-85
2024/01/11 06:25:25;;;;;;;35.88;15.70;;;;;;;-2.44;58.50;98197.47;5008335;28;20033;-85
2024/01/11 06:27:50;;;;;;;40.40;17.25;;;;;;;-2.38;58.11;98183.34;4989482;28;20071;-84
2024/01/11 06:30:16;;;;;;;55.97;20.20;;;;;;;-2.41;58.70;98186.19;5005768;28;20037;-84
2024/01/11 06:32:41;;;;;;;45.83;19.05;;;;;;;-2.37;57.88;98193.41;5002793;28;20613;-86
2024/01/11 06:35:07;;;;;;;36.05;16.67;;;;;;;-2.42;58.20;98198.13;5005773;28;20545;-86
2024/01/11 06:37:32;;;;;;;38.30;17.85;;;;;;;-2.46;58.40;98200.13;5002157;28;20337;-86
2024/01/11 06:39:58;;;;;;;36.58;17.75;;;;;;;-2.48;58.90;98199.47;5010054;28;20474;-86
2024/01/11 06:42:23;;;;;;;45.38;19.58;;;;;;;-2.48;58.06;98212.22;4990336;28;20041;-85
2024/01/11 06:44:48;;;;;;;47.90;23.95;;;;;;;-2.56;58.69;98209.53;5003751;28;20408;-86
2024/01/11 06:47:14;;;;;;;117.28;47.60;;;;;;;-2.64;59.09;98211.94;5003631;28;20033;-86
2024/01/11 06:49:40;;;;;;;91.63;40.42;;;;;;;-2.67;59.03;98227.53;4995557;28;20033;-85
2024/01/11 06:52:06;;;;;;;62.95;29.27;;;;;;;-2.76;59.45;98229.16;4995103;28;20482;-86
2024/01/11 06:54:32;;;;;;;53.88;28.00;;;;;;;-2.97;59.34;98239.44;5008903;28;20029;-85
2024/01/11 06:56:57;;;;;;;45.63;20.73;;;;;;;-3.05;59.50;98241.81;4996329;28;20038;-87
2024/01/11 06:59:23;;;;;;;38.15;19.23;;;;;;;-2.98;59.42;98245.47;4999378;28;20046;-86
2024/01/11 07:01:49;;;;;;;44.08;20.45;;;;;;;-3.06;60.26;98250.41;5026654;28;20030;-87
2024/01/11 07:04:15;;;;;;;35.47;17.92;;;;;;;-2.98;60.19;98254.84;4993763;28;20029;-86
2024/01/11 07:06:40;;;;;;;40.72;16.67;;;;;;;-2.98;59.30;98255.69;4992358;28;20033;-87
2024/01/11 07:09:05;;;;;;;38.05;18.15;;;;;;;-3.09;59.58;98263.41;5020326;28;20033;-86
2024/01/11 07:11:32;;;;;;;39.03;16.38;;;;;;;-3.10;60.71;98267.72;5021340;28;20034;-86
2024/01/11 07:13:57;;;;;;;38.08;17.73;;;;;;;-3.02;59.83;98284.88;4984413;28;20044;-86
2024/01/11 07:16:23;;;;;;;37.72;18.48;;;;;;;-3.05;60.27;98282.59;5022011;28;20038;-87
2024/01/11 07:18:49;;;;;;;42.40;19.55;;;;;;;-3.07;59.90;98276.81;5003639;28;20540;-86
2024/01/11 07:21:31;;;;;;;38.35;16.45;;;;;;;-3.08;60.95;98288.75;4999373;28;20040;-86
2024/01/11 07:24:00;;;;;;;39.22;18.08;;;;;;;-3.17;60.59;98287.00;5001978;28;20481;-86
2024/01/11 07:26:26;;;;;;;40.47;18.85;;;;;;;-3.08;60.52;98285.41;5021913;28;20117;-85
2024/01/11 07:28:54;;;;;;;49.13;18.98;;;;;;;-3.07;60.66;98279.38;4986937;28;20573;-86
2024/01/11 07:31:20;;;;;;;42.90;19.88;;;;;;;-3.20;60.86;98289.81;5004186;28;20111;-86
2024/01/11 07:33:45;;;;;;;40.03;19.20;;;;;;;-3.03;59.58;98288.38;5013084;28;20021;-86
2024/01/11 07:36:11;;;;;;;40.38;20.45;;;;;;;-3.12;60.84;98289.97;5017620;28;20022;-86
2024/01/11 07:38:37;;;;;;;38.92;17.65;;;;;;;-3.11;59.91;98290.75;5010796;28;20033;-86
2024/01/11 07:41:02;;;;;;;36.83;16.80;;;;;;;-2.99;60.69;98294.03;5003070;28;20026;-86
2024/01/11 07:43:28;;;;;;;42.13;18.73;;;;;;;-2.95;60.15;98293.59;5017474;28;20033;-85
2024/01/11 07:45:56;;;;;;;37.90;16.80;;;;;;;-2.92;60.51;98305.28;5020939;28;20568;-85
2024/01/11 07:48:22;;;;;;;38.58;17.48;;;;;;;-2.77;59.59;98293.78;5003532;28;20046;-86
2024/01/11 07:50:48;;;;;;;45.65;20.50;;;;;;;-2.66;59.45;98303.88;5025866;28;20544;-86
2024/01/11 07:53:14;;;;;;;85.10;30.52;;;;;;;-2.79;60.24;98302.50;5005553;28;20124;-86
2024/01/11 07:55:40;;;;;;;67.00;23.98;;;;;;;-2.76;60.41;98299.69;5006884;28;20038;-86
2024/01/11 07:58:05;;;;;;;57.08;23.98;;;;;;;-2.69;60.10;98290.56;4995517;28;20393;-87
2024/01/11 08:00:31;;;;;;;37.80;17.65;;;;;;;-2.62;59.71;98306.97;5006688;28;20108;-86
2024/01/11 08:02:56;;;;;;;59.13;24.45;;;;;;;-2.59;59.38;98293.94;5012226;28;20079;-86
2024/01/11 08:05:21;;;;;;;69.00;24.58;;;;;;;-2.47;58.78;98299.72;5034336;28;20034;-87
2024/01/11 08:07:47;;;;;;;56.97;23.58;;;;;;;-2.39;59.46;98299.06;5004230;28;20116;-86
2024/01/11 08:10:13;;;;;;;55.05;22.73;;;;;;;-2.33;59.34;98306.16;5015159;28;20081;-85
2024/01/11 08:12:38;;;;;;;59.67;22.90;;;;;;;-2.35;58.95;98298.66;5025082;28;20073;-85
2024/01/11 08:15:05;;;;;;;41.95;17.55;;;;;;;-2.28;59.58;98304.84;5003696;28;20057;-79
2024/01/11 08:17:30;;;;;;;37.88;16.52;;;;;;;-2.28;58.51;98311.69;5000194;28;20120;-80
2024/01/11 08:19:56;;;;;;;36.13;16.60;;;;;;;-2.32;58.80;98310.34;5020824;28;20133;-80
2024/01/11 08:22:23;;;;;;;38.60;17.27;;;;;;;-2.29;58.74;98300.66;5017076;28;20409;-79
2024/01/11 08:24:48;;;;;;;36.08;16.85;;;;;;;-2.34;58.99;98310.47;5017460;28;20564;-79
2024/01/11 08:27:17;;;;;;;35.70;17.27;;;;;;;-2.18;58.85;98312.47;5003446;28;20124;-79
2024/01/11 08:29:43;;;;;;;37.35;16.90;;;;;;;-2.29;58.50;98307.53;5010507;28;20535;-80
2024/01/11 08:32:08;;;;;;;39.90;17.58;;;;;;;-2.10;59.01;98317.72;5010873;28;20034;-79
2024/01/11 08:34:34;;;;;;;38.30;17.55;;;;;;;-2.10;59.00;98317.72;4997049;28;20105;-80
2024/01/11 08:36:59;;;;;;;38.78;17.08;;;;;;;-2.19;58.26;98308.34;5003826;28;20091;-79
2024/01/11 08:39:24;;;;;;;40.92;17.73;;;;;;;-2.30;58.99;98305.91;5013587;28;20762;-80
2024/01/11 08:41:50;;;;;;;37.22;15.95;;;;;;;-2.05;58.85;98319.06;5018149;28;20375;-79
2024/01/11 08:44:15;;;;;;;37.47;17.83;;;;;;;-2.00;58.72;98319.47;5016135;28;20033;-78
2024/01/11 08:46:41;;;;;;;37.72;16.80;;;;;;;-2.16;59.54;98317.44;5004195;28;20034;-79
2024/01/11 08:49:06;;;;;;;39.78;17.70;;;;;;;-1.90;58.91;98323.63;5009106;28;20554;-79
2024/01/11 08:51:32;;;;;;;40.00;17.40;;;;;;;-2.08;57.88;98328.59;4986703;28;20034;-80
2024/01/11 08:53:57;;;;;;;40.10;17.65;;;;;;;-2.00;58.14;98327.13;5023851;28;20405;-80
2024/01/11 08:56:23;;;;;;;39.08;17.05;;;;;;;-2.22;58.88;98318.81;5022190;28;20033;-79
2024/01/11 08:58:48;;;;;;;33.92;16.90;;;;;;;-1.89;58.45;98326.97;5007201;28;20088;-79
2024/01/11 09:01:18;;;;;;;41.92;18.10;;;;;;;-2.09;58.56;98308.31;4993125;28;20128;-79
2024/01/11 09:03:43;;;;;;;38.88;16.70;;;;;;;-1.91;57.93;98326.31;4989427;28;20079;-80
2024/01/11 09:06:10;;;;;;;43.20;18.05;;;;;;;-1.94;57.86;98327.38;5009450;28;20041;-79
2024/01/11 09:08:35;;;;;;;39.92;17.83;;;;;;;-1.90;58.22;98327.94;5019967;28;20042;-80
2024/01/11 09:11:00;;;;;;;43.92;18.23;;;;;;;-1.94;58.48;98324.03;5003269;28;20032;-80
2024/01/11 09:13:27;;;;;;;35.60;16.83;;;;;;;-1.64;57.64;98312.03;5015824;28;20044;-77
2024/01/11 09:15:53;;;;;;;40.45;17.67;;;;;;;-1.61;57.71;98315.09;5022018;28;20452;-78
2024/01/11 09:18:19;;;;;;;43.80;19.50;;;;;;;-1.51;57.57;98323.53;5001982;28;20080;-79
2024/01/11 09:20:45;;;;;;;39.80;17.58;;;;;;;-1.46;57.29;98320.56;5014683;28;20465;-78
2024/01/11 09:23:11;;;;;;;39.50;16.90;;;;;;;-1.43;56.69;98317.72;4987361;28;20405;-85
2024/01/11 09:25:36;;;;;;;40.08;17.73;;;;;;;-1.40;56.20;98304.69;4991073;28;20486;-84
2024/01/11 09:28:03;;;;;;;38.08;17.30;;;;;;;-1.21;57.26;98318.34;5010935;28;20110;-84
2024/01/11 09:30:28;;;;;;;44.20;18.67;;;;;;;-0.99;55.90;98315.41;5011239;28;20037;-83
2024/01/11 09:32:54;;;;;;;37.90;17.27;;;;;;;-0.90;56.04;98315.50;4992262;28;20511;-84
2024/01/11 09:35:20;;;;;;;38.88;16.40;;;;;;;-0.96;55.82;98315.13;5005854;28;20556;-82
2024/01/11 09:37:46;;;;;;;41.80;17.98;;;;;;;-0.86;56.24;98317.63;5020008;28;20037;-82
2024/01/11 09:40:12;;;;;;;43.25;19.45;;;;;;;-0.74;55.95;98323.34;5011156;28;20418;-82
2024/01/11 09:42:38;;;;;;;36.90;15.75;;;;;;;-0.77;55.20;98326.22;5005525;28;20067;-82
2024/01/11 09:45:15;;;;;;;37.85;17.05;;;;;;;-0.62;55.52;98335.00;5009998;28;20057;-81
2024/01/11 09:47:41;;;;;;;41.72;18.75;;;;;;;-0.58;55.62;98331.19;4997464;28;20405;-82
2024/01/11 09:50:07;;;;;;;37.95;16.77;;;;;;;-0.39;54.84;98329.47;5008974;28;20033;-83
2024/01/11 09:52:32;;;;;;;37.38;16.35;;;;;;;-0.36;54.10;98326.63;5008167;28;20088;-83
2024/01/11 09:54:59;;;;;;;38.90;15.63;;;;;;;-0.40;54.26;98340.63;4986307;28;20056;-82
2024/01/11 09:57:29;;;;;;;40.35;16.95;;;;;;;-0.31;54.22;98344.91;5012892;28;20489;-82
2024/01/11 09:59:55;;;;;;;44.35;16.58;;;;;;;-0.52;55.04;98336.69;4998784;28;20057;-83
2024/01/11 10:02:26;;;;;;;35.33;17.23;;;;;;;-0.32;55.55;98335.59;5007693;28;20045;-83
2024/01/11 10:04:52;;;;;;;36.63;15.38;;;;;;;-0.43;54.10;98335.81;5002535;28;20038;-83
2024/01/11 10:07:20;;;;;;;37.55;16.02;;;;;;;-0.22;54.90;98341.44;5025443;28;20038;-83
2024/01/11 10:09:46;;;;;;;39.35;17.95;;;;;;;-0.14;54.61;98334.78;4987087;28;20029;-82
2024/01/11 10:12:11;;;;;;;37.03;16.63;;;;;;;0.04;53.45;98345.03;5006424;28;20036;-82
2024/01/11 10:14:37;;;;;;;35.15;15.70;;;;;;;-0.33;54.27;98353.66;4984798;28;20026;-83
2024/01/11 10:17:03;;;;;;;32.03;15.35;;;;;;;-0.38;54.16;98356.63;5022430;28;20086;-83
2024/01/11 10:19:29;;;;;;;31.40;15.13;;;;;;;-0.50;54.46;98352.69;5017706;28;20117;-83
2024/01/11 10:21:54;;;;;;;37.47;16.40;;;;;;;-0.17;54.21;98347.88;4986993;28;20116;-82
2024/01/11 10:24:25;;;;;;;39.90;16.88;;;;;;;-0.04;53.79;98345.75;4983078;28;20030;-82
2024/01/11 10:26:58;;;;;;;37.33;15.93;;;;;;;0.16;53.43;98349.75;5016695;28;20029;-83
2024/01/11 10:29:33;;;;;;;36.97;17.83;;;;;;;0.31;53.03;98347.47;5023612;28;20180;-82
2024/01/11 10:31:59;;;;;;;32.00;15.90;;;;;;;0.47;53.09;98345.97;5007976;28;20029;-82
2024/01/11 10:34:24;;;;;;;31.17;15.98;;;;;;;0.43;53.53;98355.72;5007688;28;20037;-82
2024/01/11 10:36:53;;;;;;;36.30;17.35;;;;;;;0.31;53.44;98351.78;5002472;28;20026;-82
2024/01/11 10:39:24;;;;;;;38.40;18.02;;;;;;;0.49;53.23;98354.31;4999230;28;20670;-83
2024/01/11 10:41:51;;;;;;;34.70;15.93;;;;;;;0.50;52.70;98348.25;5008454;28;20116;-82
2024/01/11 10:44:19;;;;;;;35.88;16.17;;;;;;;0.66;52.68;98335.50;5008627;28;20034;-81
2024/01/11 10:46:45;;;;;;;36.08;16.25;;;;;;;0.55;52.98;98335.78;4998555;28;20034;-82
2024/01/11 10:49:11;;;;;;;38.40;16.85;;;;;;;0.53;52.69;98333.38;4989441;28;20021;-82
2024/01/11 10:51:38;;;;;;;33.58;15.68;;;;;;;0.58;52.33;98326.97;5008423;28;20037;-82
2024/01/11 10:54:04;;;;;;;34.60;15.32;;;;;;;0.62;52.36;98315.44;4993307;28;20038;-78
2024/01/11 10:56:31;;;;;;;33.25;15.98;;;;;;;0.71;51.84;98312.00;4995240;28;20034;-78
2024/01/11 10:58:56;;;;;;;36.40;17.85;;;;;;;0.57;52.59;98310.81;4994403;28;20037;-78
2024/01/11 11:01:22;;;;;;;35.15;16.38;;;;;;;0.90;51.39;98316.09;4995332;28;20040;-77
2024/01/11 11:03:48;;;;;;;37.40;17.48;;;;;;;0.91;52.36;98318.50;5017847;28;20025;-76
2024/01/11 11:06:14;;;;;;;37.35;16.95;;;;;;;0.66;52.12;98330.38;5008204;28;20455;-77
2024/01/11 11:08:40;;;;;;;38.63;17.02;;;;;;;0.98;52.12;98335.81;5020241;28;20029;-76
2024/01/11 11:11:06;;;;;;;33.65;16.20;;;;;;;1.18;51.82;98339.72;5026070;28;20493;-77